createdAt,value
2018-06-02T00:01:22.538Z,77.08
2018-06-02T00:03:49.168Z,77.40
2018-06-02T00:06:15.853Z,77.41
2018-06-02T00:08:42.446Z,77.56
2018-06-02T00:11:09.863Z,77.29
2018-06-02T00:13:36.411Z,77.47
2018-06-02T00:16:03.738Z,77.44
2018-06-02T00:18:30.340Z,77.40
2018-06-02T00:20:56.957Z,77.44
2018-06-02T00:23:24.305Z,77.57
2018-06-02T00:25:51.651Z,77.53
2018-06-02T00:28:18.303Z,77.46
2018-06-02T00:30:45.813Z,77.04
2018-06-02T00:33:12.414Z,77.25
2018-06-02T00:35:39.778Z,77.37
2018-06-02T00:38:06.404Z,77.83
2018-06-02T00:40:33.813Z,78.16
2018-06-02T00:43:00.463Z,77.90
2018-06-02T00:45:27.079Z,77.13
2018-06-02T00:47:53.788Z,77.67
2018-06-02T00:50:20.420Z,77.42
2018-06-02T00:52:47.039Z,77.10
2018-06-02T00:55:14.526Z,77.00
2018-06-02T00:57:41.124Z,78.09
2018-06-02T01:00:07.727Z,78.02
2018-06-02T01:02:34.349Z,78.13
2018-06-02T01:05:00.961Z,78.05
2018-06-02T01:07:28.310Z,77.89
2018-06-02T01:09:55.664Z,77.85
2018-06-02T01:12:23.035Z,77.31
2018-06-02T01:14:49.806Z,77.70
2018-06-02T01:17:16.459Z,77.84
2018-06-02T01:19:43.155Z,77.42
2018-06-02T01:22:09.789Z,77.59
2018-06-02T01:24:36.427Z,76.67
2018-06-02T01:27:03.807Z,77.05
2018-06-02T01:29:30.403Z,77.33
2018-06-02T01:31:57.780Z,77.31
2018-06-02T01:34:24.399Z,77.41
2018-06-02T01:36:51.137Z,77.66
2018-06-02T01:39:18.493Z,77.31
2018-06-02T01:41:45.867Z,77.48
2018-06-02T01:44:13.225Z,77.51
2018-06-02T01:46:39.874Z,77.72
2018-06-02T01:49:06.474Z,77.89
2018-06-02T01:51:33.827Z,77.61
2018-06-02T01:54:00.430Z,78.24
2018-06-02T01:56:27.084Z,78.34
2018-06-02T01:58:53.808Z,78.58
2018-06-02T02:01:20.398Z,78.14
2018-06-02T02:03:47.776Z,78.23
2018-06-02T02:06:14.481Z,78.87
2018-06-02T02:08:41.100Z,78.75
2018-06-02T02:11:07.845Z,78.60
2018-06-02T02:13:34.434Z,78.53
2018-06-02T02:16:01.154Z,78.16
2018-06-02T02:18:28.618Z,78.61
2018-06-02T02:20:55.946Z,78.74
2018-06-02T02:23:22.720Z,78.72
2018-06-02T02:25:49.322Z,78.75
2018-06-02T02:28:15.931Z,78.25
2018-06-02T02:30:42.513Z,78.16
2018-06-02T02:33:09.860Z,77.68
2018-06-02T02:35:36.500Z,78.07
2018-06-02T02:38:03.166Z,78.03
2018-06-02T02:40:29.780Z,78.25
2018-06-02T02:42:57.217Z,78.35
2018-06-02T02:45:24.568Z,78.14
2018-06-02T02:47:51.228Z,78.07
2018-06-02T02:50:18.575Z,78.16
2018-06-02T02:52:45.172Z,78.33
2018-06-02T02:55:11.737Z,78.21
2018-06-02T02:57:38.379Z,78.41
2018-06-02T03:00:04.985Z,78.40
2018-06-02T03:02:31.628Z,78.36
2018-06-02T03:04:58.239Z,78.07
2018-06-02T03:07:25.041Z,78.00
2018-06-02T03:09:51.647Z,78.12
2018-06-02T03:12:18.294Z,78.24
2018-06-02T03:14:45.081Z,77.96
2018-06-02T03:17:12.626Z,77.90
2018-06-02T03:19:39.249Z,78.03
2018-06-02T03:22:05.924Z,78.14
2018-06-02T03:24:33.291Z,78.26
2018-06-02T03:27:00.498Z,78.31
2018-06-02T03:29:27.123Z,78.03
2018-06-02T03:31:53.765Z,78.13
2018-06-02T03:34:20.413Z,78.11
2018-06-02T03:36:47.093Z,78.19
2018-06-02T03:39:14.649Z,77.70
2018-06-02T03:41:42.026Z,77.34
2018-06-02T03:44:08.636Z,76.85
2018-06-02T03:46:36.025Z,77.00
2018-06-02T03:49:02.602Z,76.78
2018-06-02T03:51:29.252Z,76.21
2018-06-02T03:53:56.623Z,76.68
2018-06-02T03:56:24.053Z,76.67
2018-06-02T03:58:50.705Z,76.79
2018-06-02T04:01:17.317Z,76.47
2018-06-02T04:03:43.956Z,76.18
2018-06-02T04:06:10.567Z,76.45
2018-06-02T04:08:37.409Z,75.65
2018-06-02T04:11:04.041Z,75.37
2018-06-02T04:13:30.676Z,75.53
2018-06-02T04:15:57.468Z,75.50
2018-06-02T04:18:24.033Z,75.18
2018-06-02T04:20:51.378Z,75.01
2018-06-02T04:23:18.770Z,74.89
2018-06-02T04:25:46.230Z,74.93
2018-06-02T04:28:12.847Z,75.14
2018-06-02T04:30:39.486Z,74.89
2018-06-02T04:33:06.097Z,74.49
2018-06-02T04:35:33.601Z,74.10
2018-06-02T04:38:00.212Z,74.41
2018-06-02T04:40:27.590Z,74.46
2018-06-02T04:42:54.341Z,74.40
2018-06-02T04:45:21.069Z,73.89
2018-06-02T04:47:47.706Z,73.76
2018-06-02T04:50:14.417Z,73.72
2018-06-02T04:52:41.877Z,73.59
2018-06-02T04:55:09.407Z,73.64
2018-06-02T04:57:36.057Z,74.21
2018-06-02T05:00:02.663Z,74.35
2018-06-02T05:02:29.349Z,74.70
2018-06-02T05:04:56.721Z,74.86
2018-06-02T05:07:24.100Z,74.66
2018-06-02T05:09:50.720Z,75.17
2018-06-02T05:12:18.238Z,75.17
2018-06-02T05:14:44.913Z,75.20
2018-06-02T05:17:12.358Z,74.55
2018-06-02T05:19:39.758Z,74.67
2018-06-02T05:22:06.358Z,74.44
2018-06-02T05:24:33.896Z,74.79
2018-06-02T05:27:00.501Z,74.61
2018-06-02T05:29:27.187Z,74.95
2018-06-02T05:31:54.767Z,75.24
2018-06-02T05:34:21.409Z,75.35
2018-06-02T05:36:48.065Z,75.57
2018-06-02T05:39:14.878Z,75.91
2018-06-02T05:41:42.275Z,76.10
2018-06-02T05:44:08.937Z,76.04
2018-06-02T05:46:36.324Z,75.96
2018-06-02T05:49:04.135Z,75.61
2018-06-02T05:51:30.846Z,75.73
2018-06-02T05:53:57.502Z,75.70
2018-06-02T05:56:24.186Z,75.62
2018-06-02T05:58:50.971Z,75.55
2018-06-02T06:01:17.585Z,75.01
2018-06-02T06:03:44.934Z,74.69
2018-06-02T06:06:12.345Z,74.74
2018-06-02T06:08:39.011Z,75.09
2018-06-02T06:11:05.700Z,75.17
2018-06-02T06:13:32.367Z,75.28
2018-06-02T06:15:59.048Z,74.81
2018-06-02T06:18:26.587Z,74.29
2018-06-02T06:20:53.300Z,73.89
2018-06-02T06:23:20.002Z,73.83
2018-06-02T06:25:47.377Z,73.59
2018-06-02T06:28:14.025Z,74.12
2018-06-02T06:30:40.709Z,73.91
2018-06-02T06:33:08.128Z,73.72
2018-06-02T06:35:35.472Z,73.28
2018-06-02T06:38:02.220Z,73.40
2018-06-02T06:40:28.833Z,73.56
2018-06-02T06:42:55.475Z,73.70
2018-06-02T06:45:22.233Z,73.15
2018-06-02T06:47:48.887Z,73.28
2018-06-02T06:50:15.571Z,73.24
2018-06-02T06:52:43.132Z,73.64
2018-06-02T06:55:10.483Z,73.77
2018-06-02T06:57:37.910Z,73.55
2018-06-02T07:00:06.617Z,73.05
2018-06-02T07:02:33.331Z,72.62
2018-06-02T07:04:59.977Z,72.02
2018-06-02T07:07:26.625Z,71.87
2018-06-02T07:09:53.309Z,71.39
2018-06-02T07:12:19.978Z,71.43
2018-06-02T07:14:46.669Z,71.91
2018-06-02T07:17:14.070Z,71.53
2018-06-02T07:19:40.749Z,71.74
2018-06-02T07:22:07.494Z,71.30
2018-06-02T07:24:34.865Z,70.89
2018-06-02T07:27:02.353Z,70.23
2018-06-02T07:29:29.200Z,70.40
2018-06-02T07:31:55.851Z,70.56
2018-06-02T07:34:22.495Z,70.94
2018-06-02T07:36:49.167Z,71.62
2018-06-02T07:39:15.828Z,71.42
2018-06-02T07:41:42.617Z,70.44
2018-06-02T07:44:09.287Z,70.72
2018-06-02T07:46:35.949Z,71.13
2018-06-02T07:49:02.632Z,71.14
2018-06-02T07:51:29.346Z,71.52
2018-06-02T07:53:55.973Z,71.57
2018-06-02T07:56:22.740Z,71.80
2018-06-02T07:58:49.424Z,72.20
2018-06-02T08:01:16.077Z,71.40
2018-06-02T08:03:43.479Z,71.18
2018-06-02T08:06:10.285Z,71.55
2018-06-02T08:08:37.725Z,71.39
2018-06-02T08:11:04.376Z,71.80
2018-06-02T08:13:31.788Z,71.40
2018-06-02T08:15:58.514Z,71.34
2018-06-02T08:18:25.163Z,71.85
2018-06-02T08:20:51.867Z,71.31
2018-06-02T08:23:18.553Z,71.06
2018-06-02T08:25:45.232Z,71.12
2018-06-02T08:28:11.982Z,71.19
2018-06-02T08:30:38.622Z,70.94
2018-06-02T08:33:05.293Z,70.37
2018-06-02T08:35:31.928Z,70.15
2018-06-02T08:37:58.641Z,69.55
2018-06-02T08:40:25.405Z,68.46
2018-06-02T08:42:52.185Z,66.80
2018-06-02T08:45:18.831Z,65.57
2018-06-02T08:47:45.827Z,65.33
2018-06-02T08:50:12.651Z,65.39
2018-06-02T08:52:39.489Z,64.87
2018-06-02T08:55:06.124Z,65.46
2018-06-02T08:57:33.574Z,65.07
2018-06-02T09:00:00.985Z,64.08
2018-06-02T09:02:27.649Z,63.81
2018-06-02T09:04:54.385Z,63.77
2018-06-02T09:07:21.069Z,63.94
2018-06-02T09:09:47.865Z,64.18
2018-06-02T09:12:14.541Z,64.55
2018-06-02T09:14:41.959Z,64.62
2018-06-02T09:17:08.666Z,64.73
2018-06-02T09:19:35.335Z,65.30
2018-06-02T09:22:01.991Z,65.90
2018-06-02T09:24:29.356Z,65.65
2018-06-02T09:26:56.784Z,64.96
2018-06-02T09:29:23.471Z,64.22
2018-06-02T09:31:50.157Z,63.30
2018-06-02T09:34:16.886Z,61.79
2018-06-02T09:36:43.521Z,61.19
2018-06-02T09:39:10.169Z,61.06
2018-06-02T09:41:36.925Z,60.69
2018-06-02T09:44:03.558Z,60.56
2018-06-02T09:46:30.232Z,60.13
2018-06-02T09:48:57.707Z,59.85
2018-06-02T09:51:24.378Z,59.37
2018-06-02T09:53:51.094Z,59.57
2018-06-02T09:56:17.793Z,58.97
2018-06-02T09:58:44.485Z,58.50
2018-06-02T10:01:11.109Z,58.18
2018-06-02T10:03:37.817Z,58.61
2018-06-02T10:06:05.225Z,58.73
2018-06-02T10:08:31.969Z,59.74
2018-06-02T10:10:58.647Z,59.33
2018-06-02T10:13:25.508Z,59.14
2018-06-02T10:15:52.989Z,58.46
2018-06-02T10:18:19.663Z,57.83
2018-06-02T10:20:46.365Z,58.37
2018-06-02T10:23:12.997Z,58.03
2018-06-02T10:25:39.724Z,57.51
2018-06-02T10:28:07.110Z,57.56
2018-06-02T10:30:33.867Z,57.74
2018-06-02T10:33:00.481Z,57.46
2018-06-02T10:35:28.100Z,56.76
2018-06-02T10:37:54.777Z,57.22
2018-06-02T10:40:21.453Z,57.77
2018-06-02T10:42:48.146Z,57.57
2018-06-02T10:45:15.621Z,58.46
2018-06-02T10:47:42.575Z,58.41
2018-06-02T10:50:09.360Z,58.41
2018-06-02T10:52:36.012Z,58.01
2018-06-02T10:55:02.781Z,57.94
2018-06-02T10:57:29.460Z,57.54
2018-06-02T10:59:56.153Z,57.31
2018-06-02T11:02:22.854Z,57.18
2018-06-02T11:04:49.674Z,56.57
2018-06-02T11:07:16.441Z,57.21
2018-06-02T11:09:43.306Z,56.83
2018-06-02T11:12:10.757Z,56.77
2018-06-02T11:14:37.427Z,56.92
2018-06-02T11:17:04.037Z,57.31
2018-06-02T11:19:31.466Z,58.57
2018-06-02T11:21:58.237Z,58.89
2018-06-02T11:24:25.671Z,60.23
2018-06-02T11:26:52.308Z,60.23
2018-06-02T11:29:19.097Z,60.33
2018-06-02T11:31:45.739Z,60.68
2018-06-02T11:34:12.380Z,60.96
2018-06-02T11:36:39.193Z,60.59
2018-06-02T11:39:05.849Z,60.13
2018-06-02T11:41:33.274Z,60.06
2018-06-02T11:44:01.441Z,59.89
2018-06-02T11:46:28.072Z,59.25
2018-06-02T11:48:54.768Z,59.03
2018-06-02T11:51:21.532Z,58.48
2018-06-02T11:53:48.199Z,58.63
2018-06-02T11:56:14.919Z,58.20
2018-06-02T11:58:41.618Z,59.13
2018-06-02T12:01:09.048Z,58.45
2018-06-02T12:03:35.683Z,59.03
2018-06-02T12:06:03.841Z,59.60
2018-06-02T12:08:30.502Z,59.27
2018-06-02T12:10:57.359Z,59.14
2018-06-02T12:13:24.808Z,59.12
2018-06-02T12:15:52.220Z,58.63
2018-06-02T12:18:18.886Z,57.82
2018-06-02T12:20:45.530Z,57.47
2018-06-02T12:23:12.185Z,56.86
2018-06-02T12:25:39.580Z,56.73
2018-06-02T12:28:06.435Z,56.83
2018-06-02T12:30:33.145Z,56.10
2018-06-02T12:33:00.559Z,54.96
2018-06-02T12:35:27.180Z,55.42
2018-06-02T12:37:53.961Z,55.84
2018-06-02T12:40:20.765Z,56.19
2018-06-02T12:42:47.478Z,56.49
2018-06-02T12:45:14.132Z,56.44
2018-06-02T12:47:40.828Z,56.02
2018-06-02T12:50:07.509Z,55.72
2018-06-02T12:52:34.158Z,54.63
2018-06-02T12:55:00.794Z,55.76
2018-06-02T12:57:27.705Z,56.92
2018-06-02T12:59:54.374Z,57.40
2018-06-02T13:02:21.081Z,57.25
2018-06-02T13:04:47.924Z,57.10
2018-06-02T13:07:15.373Z,57.32
2018-06-02T13:09:42.753Z,57.14
2018-06-02T13:12:09.399Z,56.08
2018-06-02T13:14:36.025Z,54.99
2018-06-02T13:17:02.906Z,55.43
2018-06-02T13:19:29.576Z,54.72
2018-06-02T13:21:56.265Z,54.74
2018-06-02T13:24:22.899Z,54.31
2018-06-02T13:26:49.659Z,53.41
2018-06-02T13:29:16.445Z,52.49
2018-06-02T13:31:43.829Z,51.78
2018-06-02T13:34:10.450Z,51.02
2018-06-02T13:36:37.860Z,49.48
2018-06-02T13:39:05.357Z,49.03
2018-06-02T13:41:32.737Z,48.37
2018-06-02T13:43:59.405Z,47.92
2018-06-02T13:46:26.080Z,47.70
2018-06-02T13:48:52.693Z,47.54
2018-06-02T13:51:19.468Z,48.00
2018-06-02T13:53:46.930Z,48.23
2018-06-02T13:56:14.341Z,50.06
2018-06-02T13:58:40.966Z,50.37
2018-06-02T14:01:07.574Z,51.85
2018-06-02T14:03:34.984Z,52.42
2018-06-02T14:06:01.696Z,53.82
2018-06-02T14:08:28.314Z,54.17
2018-06-02T14:10:55.113Z,54.60
2018-06-02T14:13:21.741Z,55.10
2018-06-02T14:15:48.402Z,56.02
2018-06-02T14:18:15.838Z,56.86
2018-06-02T14:20:42.517Z,57.57
2018-06-02T14:23:09.910Z,57.95
2018-06-02T14:25:36.615Z,59.32
2018-06-02T14:28:03.425Z,59.75
2018-06-02T14:30:30.096Z,60.09
2018-06-02T14:32:57.500Z,59.94
2018-06-02T14:35:24.153Z,60.55
2018-06-02T14:37:50.810Z,61.48
2018-06-02T14:40:17.437Z,61.27
2018-06-02T14:42:44.847Z,61.44
2018-06-02T14:45:11.557Z,61.80
2018-06-02T14:47:39.113Z,61.24
2018-06-02T14:50:06.501Z,61.21
2018-06-02T14:52:33.364Z,60.42
2018-06-02T14:55:00.001Z,59.96
2018-06-02T14:57:26.809Z,59.58
2018-06-02T14:59:53.483Z,59.50
2018-06-02T15:02:20.116Z,58.99
2018-06-02T15:04:46.797Z,58.59
2018-06-02T15:07:13.457Z,58.05
2018-06-02T15:09:40.904Z,57.20
2018-06-02T15:12:08.281Z,57.25
2018-06-02T15:14:35.665Z,57.32
2018-06-02T15:17:02.305Z,57.14
2018-06-02T15:19:28.950Z,57.23
2018-06-02T15:21:55.640Z,57.01
2018-06-02T15:24:23.023Z,56.60
2018-06-02T15:26:49.800Z,56.50
2018-06-02T15:29:16.454Z,56.09
2018-06-02T15:31:43.084Z,55.71
2018-06-02T15:34:09.745Z,55.48
2018-06-02T15:36:37.196Z,55.35
2018-06-02T15:39:04.790Z,55.32
2018-06-02T15:41:31.418Z,55.31
2018-06-02T15:43:58.841Z,55.07
2018-06-02T15:46:25.485Z,54.76
2018-06-02T15:48:52.097Z,55.78
2018-06-02T15:51:19.138Z,56.25
2018-06-02T15:53:45.777Z,56.88
2018-06-02T15:56:12.456Z,57.53
2018-06-02T15:58:39.132Z,57.07
2018-06-02T16:01:05.819Z,57.78
2018-06-02T16:03:32.735Z,58.40
2018-06-02T16:05:59.583Z,59.22
2018-06-02T16:08:26.281Z,58.40
2018-06-02T16:10:53.680Z,58.58
2018-06-02T16:13:20.344Z,58.28
2018-06-02T16:15:47.083Z,57.71
2018-06-02T16:18:13.735Z,58.60
2018-06-02T16:20:40.403Z,58.68
2018-06-02T16:23:07.983Z,58.22
2018-06-02T16:25:34.629Z,57.96
2018-06-02T16:28:01.312Z,57.59
2018-06-02T16:30:27.987Z,57.32
2018-06-02T16:32:54.678Z,58.00
2018-06-02T16:35:21.597Z,57.24
2018-06-02T16:37:48.236Z,57.01
2018-06-02T16:40:14.974Z,57.45
2018-06-02T16:42:41.618Z,57.32
2018-06-02T16:45:08.284Z,57.42
2018-06-02T16:47:36.478Z,57.91
2018-06-02T16:50:03.925Z,58.37
2018-06-02T16:52:30.580Z,58.17
2018-06-02T16:54:57.989Z,58.06
2018-06-02T16:57:24.660Z,57.88
2018-06-02T16:59:51.504Z,57.97
2018-06-02T17:02:18.277Z,57.75
2018-06-02T17:04:45.005Z,57.28
2018-06-02T17:07:12.425Z,56.95
2018-06-02T17:09:39.176Z,56.87
2018-06-02T17:12:05.876Z,57.25
2018-06-02T17:14:32.572Z,56.87
2018-06-02T17:16:59.998Z,57.02
2018-06-02T17:19:26.816Z,57.01
2018-06-02T17:21:53.472Z,56.46
2018-06-02T17:24:21.006Z,56.81
2018-06-02T17:26:47.738Z,56.57
2018-06-02T17:29:14.364Z,56.96
2018-06-02T17:31:41.156Z,57.13
2018-06-02T17:34:07.835Z,57.64
2018-06-02T17:36:35.361Z,58.04
2018-06-02T17:39:02.024Z,58.10
2018-06-02T17:41:28.738Z,58.28
2018-06-02T17:43:55.404Z,58.50
2018-06-02T17:46:22.813Z,58.84
2018-06-02T17:48:49.503Z,58.74
2018-06-02T17:51:16.917Z,58.77
2018-06-02T17:53:43.658Z,58.71
2018-06-02T17:56:10.543Z,58.85
2018-06-02T17:58:38.089Z,59.18
2018-06-02T18:01:06.277Z,59.39
2018-06-02T18:03:32.937Z,59.65
2018-06-02T18:05:59.720Z,59.98
2018-06-02T18:08:26.627Z,60.33
2018-06-02T18:10:53.368Z,60.79
2018-06-02T18:13:20.352Z,60.93
2018-06-02T18:15:47.218Z,60.99
2018-06-02T18:18:13.854Z,61.29
2018-06-02T18:20:40.494Z,61.57
2018-06-02T18:23:07.308Z,62.01
2018-06-02T18:25:34.149Z,62.05
2018-06-02T18:28:00.894Z,62.15
2018-06-02T18:30:27.665Z,62.15
2018-06-02T18:32:54.331Z,62.45
2018-06-02T18:35:22.037Z,62.71
2018-06-02T18:37:48.708Z,63.06
2018-06-02T18:40:16.125Z,62.97
2018-06-02T18:42:42.892Z,62.88
2018-06-02T18:45:09.533Z,62.99
2018-06-02T18:47:36.231Z,63.56
2018-06-02T18:50:02.905Z,63.78
2018-06-02T18:52:29.637Z,64.03
2018-06-02T18:54:56.374Z,64.16
2018-06-02T18:57:23.156Z,64.29
2018-06-02T18:59:51.312Z,64.44
2018-06-02T19:02:17.954Z,64.62
2018-06-02T19:04:44.626Z,64.77
2018-06-02T19:07:12.025Z,64.90
2018-06-02T19:09:38.861Z,65.06
2018-06-02T19:12:05.547Z,65.18
2018-06-02T19:14:33.022Z,65.38
2018-06-02T19:17:00.597Z,65.55
2018-06-02T19:19:27.299Z,65.62
2018-06-02T19:21:54.094Z,65.63
2018-06-02T19:24:20.723Z,65.85
2018-06-02T19:26:47.397Z,65.95
2018-06-02T19:29:14.034Z,66.01
2018-06-02T19:31:40.760Z,66.00
2018-06-02T19:34:07.451Z,66.01
2018-06-02T19:36:34.850Z,66.08
2018-06-02T19:39:01.465Z,66.16
2018-06-02T19:41:28.861Z,66.50
2018-06-02T19:43:56.286Z,66.59
2018-06-02T19:46:22.908Z,66.62
2018-06-02T19:48:50.307Z,66.63
2018-06-02T19:51:16.942Z,66.66
2018-06-02T19:53:43.631Z,66.75
2018-06-02T19:56:10.277Z,66.86
2018-06-02T19:58:37.746Z,66.98
2018-06-02T20:01:05.068Z,67.09
2018-06-02T20:03:33.177Z,66.82
2018-06-02T20:05:59.965Z,66.95
2018-06-02T20:08:26.698Z,66.99
2018-06-02T20:10:53.332Z,66.87
2018-06-02T20:13:19.960Z,67.14
2018-06-02T20:15:46.661Z,67.35
2018-06-02T20:18:14.070Z,67.46
2018-06-02T20:20:40.715Z,67.74
2018-06-02T20:23:07.342Z,67.81
2018-06-02T20:25:33.992Z,67.92
2018-06-02T20:28:00.640Z,68.01
2018-06-02T20:30:27.268Z,68.13
2018-06-02T20:32:53.880Z,68.12
2018-06-02T20:35:20.589Z,68.28
2018-06-02T20:37:48.000Z,68.37
2018-06-02T20:40:14.930Z,68.33
2018-06-02T20:42:41.668Z,68.64
2018-06-02T20:45:08.263Z,68.65
2018-06-02T20:47:35.617Z,68.85
2018-06-02T20:50:03.125Z,68.90
2018-06-02T20:52:29.782Z,69.21
2018-06-02T20:54:56.391Z,69.36
2018-06-02T20:57:23.050Z,69.36
2018-06-02T20:59:49.689Z,69.50
2018-06-02T21:02:16.328Z,69.65
2018-06-02T21:04:42.941Z,69.82
2018-06-02T21:07:09.597Z,69.66
2018-06-02T21:09:36.248Z,69.91
2018-06-02T21:12:02.883Z,70.16
2018-06-02T21:14:29.509Z,70.30
2018-06-02T21:16:56.323Z,70.50
2018-06-02T21:19:23.250Z,70.62
2018-06-02T21:21:50.642Z,70.70
2018-06-02T21:24:17.236Z,70.99
2018-06-02T21:26:44.880Z,71.27
2018-06-02T21:29:11.513Z,70.14
2018-06-02T21:31:38.238Z,69.54
2018-06-02T21:34:04.983Z,68.56
2018-06-02T21:36:31.612Z,68.69
2018-06-02T21:38:58.247Z,68.92
2018-06-02T21:41:24.895Z,69.30
2018-06-02T21:43:51.576Z,69.13
2018-06-02T21:46:18.319Z,68.99
2018-06-02T21:48:45.709Z,69.60
2018-06-02T21:51:12.424Z,69.32
2018-06-02T21:53:39.765Z,68.70
2018-06-02T21:56:07.158Z,68.76
2018-06-02T21:58:33.805Z,68.66
2018-06-02T22:01:00.542Z,67.99
2018-06-02T22:03:27.133Z,67.65
2018-06-02T22:05:54.027Z,67.63
2018-06-02T22:08:20.944Z,67.87
2018-06-02T22:10:48.303Z,68.29
2018-06-02T22:13:15.632Z,68.65
2018-06-02T22:15:42.246Z,68.67
2018-06-02T22:18:08.882Z,68.50
2018-06-02T22:20:35.497Z,67.42
2018-06-02T22:23:02.137Z,66.78
2018-06-02T22:25:28.733Z,67.15
2018-06-02T22:27:56.097Z,67.68
2018-06-02T22:30:23.514Z,67.65
2018-06-02T22:32:50.165Z,67.57
2018-06-02T22:35:16.841Z,67.42
2018-06-02T22:37:44.378Z,67.12
2018-06-02T22:40:11.809Z,66.56
2018-06-02T22:42:38.419Z,67.23
2018-06-02T22:45:05.067Z,67.67
2018-06-02T22:47:31.773Z,67.73
2018-06-02T22:49:58.396Z,67.69
2018-06-02T22:52:25.782Z,67.98
2018-06-02T22:54:52.425Z,67.83
2018-06-02T22:57:19.042Z,67.93
2018-06-02T22:59:46.417Z,67.79
2018-06-02T23:02:13.007Z,67.83
2018-06-02T23:04:39.621Z,68.24
2018-06-02T23:07:06.194Z,69.03
2018-06-02T23:09:33.025Z,69.36
2018-06-02T23:12:00.416Z,69.62
2018-06-02T23:14:27.083Z,69.92
2018-06-02T23:16:53.704Z,70.00
2018-06-02T23:19:20.450Z,70.35
2018-06-02T23:21:47.045Z,70.82
2018-06-02T23:24:13.661Z,71.46
2018-06-02T23:26:40.277Z,71.57
2018-06-02T23:29:06.935Z,71.71
2018-06-02T23:31:33.723Z,72.13
2018-06-02T23:34:01.079Z,72.29
2018-06-02T23:36:27.686Z,72.64
2018-06-02T23:38:54.361Z,73.05
2018-06-02T23:41:20.986Z,73.14
2018-06-02T23:43:48.325Z,73.27
2018-06-02T23:46:15.730Z,73.69
2018-06-02T23:48:42.370Z,73.58
2018-06-02T23:51:09.036Z,73.99
2018-06-02T23:53:35.777Z,74.09
2018-06-02T23:56:03.142Z,74.36
2018-06-02T23:58:29.770Z,74.33
